createdAt,value
2023-03-11T00:00:55.101Z,22.67
2023-03-11T00:04:55.088Z,22.87
2023-03-11T00:08:55.209Z,22.97
2023-03-11T00:12:55.160Z,23.05
2023-03-11T00:16:55.153Z,23.26
2023-03-11T00:20:55.109Z,23.50
2023-03-11T00:24:55.050Z,23.58
2023-03-11T00:28:55.005Z,23.53
2023-03-11T00:32:54.979Z,23.63
2023-03-11T00:36:54.923Z,23.71
2023-03-11T00:40:54.896Z,23.76
2023-03-11T00:44:54.860Z,23.78
2023-03-11T00:48:54.828Z,23.76
2023-03-11T00:52:54.779Z,23.71
2023-03-11T00:56:54.808Z,23.70
2023-03-11T01:00:54.687Z,23.69
2023-03-11T01:04:54.795Z,23.50
2023-03-11T01:08:54.783Z,23.36
2023-03-11T01:12:54.817Z,23.31
2023-03-11T01:16:54.896Z,23.39
2023-03-11T01:20:54.930Z,23.43
2023-03-11T01:24:54.946Z,23.47
2023-03-11T01:28:54.990Z,23.48
2023-03-11T01:32:55.012Z,23.40
2023-03-11T01:36:55.091Z,23.37
2023-03-11T01:40:55.176Z,23.43
2023-03-11T01:44:55.282Z,23.48
2023-03-11T01:48:55.427Z,23.55
2023-03-11T01:52:55.494Z,23.53
2023-03-11T01:56:55.628Z,23.44
2023-03-11T02:00:55.701Z,23.42
2023-03-11T02:04:55.839Z,23.38
2023-03-11T02:08:55.950Z,23.32
2023-03-11T02:12:56.089Z,23.35
2023-03-11T02:16:56.174Z,23.58
2023-03-11T02:20:56.280Z,23.62
2023-03-11T02:24:56.384Z,23.70
2023-03-11T02:28:56.448Z,23.78
2023-03-11T02:32:56.555Z,23.90
2023-03-11T02:36:56.665Z,23.89
2023-03-11T02:40:56.743Z,23.89
2023-03-11T02:44:56.824Z,23.91
2023-03-11T02:48:56.909Z,24.00
2023-03-11T02:52:56.945Z,24.02
2023-03-11T02:56:56.969Z,23.97
2023-03-11T03:00:57.014Z,24.17
2023-03-11T03:04:57.045Z,24.31
2023-03-11T03:08:57.078Z,24.03
2023-03-11T03:12:57.048Z,23.98
2023-03-11T03:16:57.184Z,23.95
2023-03-11T03:20:57.102Z,24.10
2023-03-11T03:24:57.083Z,24.07
2023-03-11T03:28:57.086Z,23.84
2023-03-11T03:32:57.119Z,23.87
2023-03-11T03:36:57.116Z,24.10
2023-03-11T03:40:57.097Z,23.93
2023-03-11T03:44:57.103Z,23.77
2023-03-11T03:48:57.124Z,23.75
2023-03-11T03:52:57.128Z,23.72
2023-03-11T03:56:57.107Z,23.50
2023-03-11T04:00:57.249Z,23.47
2023-03-11T04:04:57.190Z,23.52
2023-03-11T04:08:57.266Z,23.40
2023-03-11T04:12:57.330Z,23.37
2023-03-11T04:16:57.455Z,23.34
2023-03-11T04:20:57.476Z,23.50
2023-03-11T04:24:57.498Z,23.40
2023-03-11T04:28:57.580Z,23.26
2023-03-11T04:32:57.622Z,23.28
2023-03-11T04:36:57.675Z,23.26
2023-03-11T04:40:57.724Z,23.17
2023-03-11T04:44:57.759Z,23.18
2023-03-11T04:48:57.817Z,23.13
2023-03-11T04:52:57.866Z,23.02
2023-03-11T04:56:57.981Z,22.92
2023-03-11T05:00:58.049Z,22.91
2023-03-11T05:04:58.229Z,22.99
2023-03-11T05:08:58.268Z,22.88
2023-03-11T05:12:58.359Z,22.88
2023-03-11T05:16:58.501Z,22.89
2023-03-11T05:20:58.609Z,22.93
2023-03-11T05:24:58.687Z,22.81
2023-03-11T05:28:58.755Z,22.78
2023-03-11T05:32:58.866Z,22.78
2023-03-11T05:37:00.482Z,22.69
2023-03-11T05:40:58.958Z,22.75
2023-03-11T05:44:58.897Z,22.75
2023-03-11T05:48:58.890Z,22.78
2023-03-11T05:52:58.862Z,22.77
2023-03-11T05:56:58.777Z,22.72
2023-03-11T06:00:58.760Z,22.69
2023-03-11T06:04:58.852Z,22.70
2023-03-11T06:08:58.685Z,22.67
2023-03-11T06:12:58.638Z,22.67
2023-03-11T06:16:58.586Z,22.69
2023-03-11T06:20:58.593Z,22.71
2023-03-11T06:24:58.550Z,22.72
2023-03-11T06:28:58.533Z,22.71
2023-03-11T06:32:58.793Z,22.66
2023-03-11T06:36:58.897Z,22.62
2023-03-11T06:40:59.031Z,22.63
2023-03-11T06:44:59.192Z,22.63
2023-03-11T06:48:59.359Z,22.56
2023-03-11T06:52:59.551Z,22.58
2023-03-11T06:56:59.683Z,22.58
2023-03-11T07:00:59.943Z,22.62
2023-03-11T07:05:00.011Z,22.57
2023-03-11T07:09:00.169Z,22.56
2023-03-11T07:13:00.297Z,22.61
2023-03-11T07:17:00.466Z,22.59
2023-03-11T07:21:00.559Z,22.56
2023-03-11T07:25:00.717Z,22.59
2023-03-11T07:29:00.829Z,22.63
2023-03-11T07:33:01.012Z,22.64
2023-03-11T07:37:01.134Z,22.67
2023-03-11T07:41:01.443Z,22.66
2023-03-11T07:45:01.451Z,22.65
2023-03-11T07:49:01.567Z,22.67
2023-03-11T07:53:01.713Z,22.68
2023-03-11T07:57:01.807Z,22.74
2023-03-11T08:01:01.922Z,22.76
2023-03-11T08:05:02.016Z,22.73
2023-03-11T08:09:02.133Z,22.70
2023-03-11T08:13:02.238Z,22.74
2023-03-11T08:17:02.323Z,22.82
2023-03-11T08:21:02.405Z,22.81
2023-03-11T08:25:02.445Z,22.84
2023-03-11T08:29:02.548Z,22.91
2023-03-11T08:33:02.599Z,22.82
2023-03-11T08:37:02.612Z,22.88
2023-03-11T08:41:02.643Z,22.85
2023-03-11T08:45:02.708Z,22.87
2023-03-11T08:49:02.728Z,22.93
2023-03-11T08:53:02.772Z,22.87
2023-03-11T08:57:02.839Z,22.91
2023-03-11T09:01:02.832Z,22.92
2023-03-11T09:05:02.916Z,22.91
2023-03-11T09:09:02.970Z,22.95
2023-03-11T09:13:02.949Z,22.99
2023-03-11T09:17:03.018Z,22.96
2023-03-11T09:21:03.030Z,23.05
2023-03-11T09:25:03.078Z,23.01
2023-03-11T09:29:03.078Z,23.01
2023-03-11T09:33:03.133Z,23.18
2023-03-11T09:37:03.116Z,23.17
2023-03-11T09:41:03.117Z,23.03
2023-03-11T09:45:03.064Z,23.02
2023-03-11T09:49:03.090Z,23.20
2023-03-11T09:53:03.119Z,23.12
2023-03-11T09:57:03.084Z,23.12
2023-03-11T10:01:03.051Z,23.33
2023-03-11T10:05:03.032Z,23.06
2023-03-11T10:09:03.049Z,22.95
2023-03-11T10:13:03.021Z,23.12
2023-03-11T10:17:02.982Z,23.12
2023-03-11T10:21:02.951Z,23.11
2023-03-11T10:25:03.027Z,23.20
2023-03-11T10:29:03.129Z,23.18
2023-03-11T10:33:03.246Z,23.19
2023-03-11T10:37:03.388Z,23.30
2023-03-11T10:41:03.378Z,23.32
2023-03-11T10:45:03.321Z,23.27
2023-03-11T10:49:03.300Z,23.32
2023-03-11T10:53:03.272Z,23.28
2023-03-11T10:57:03.220Z,23.33
2023-03-11T11:01:03.237Z,23.33
2023-03-11T11:05:03.168Z,23.46
2023-03-11T11:09:03.156Z,23.53
2023-03-11T11:13:03.065Z,23.26
2023-03-11T11:17:03.040Z,23.43
2023-03-11T11:21:03.144Z,23.47
2023-03-11T11:25:03.386Z,23.57
2023-03-11T11:29:03.564Z,23.42
2023-03-11T11:33:03.729Z,23.34
2023-03-11T11:37:03.710Z,23.33
2023-03-11T11:41:03.693Z,23.67
2023-03-11T11:45:03.612Z,23.66
2023-03-11T11:49:03.593Z,23.66
2023-03-11T11:53:03.544Z,23.49
2023-03-11T11:57:03.551Z,23.72
2023-03-11T12:01:03.480Z,23.88
2023-03-11T12:05:03.454Z,23.87
2023-03-11T12:09:03.410Z,23.86
2023-03-11T12:13:03.467Z,23.87
2023-03-11T12:17:04.349Z,23.85
2023-03-11T12:21:03.869Z,23.68
2023-03-11T12:25:04.084Z,23.68
2023-03-11T12:29:04.291Z,23.63
2023-03-11T12:33:04.526Z,23.56
2023-03-11T12:37:04.748Z,23.41
2023-03-11T12:41:04.926Z,23.58
2023-03-11T12:45:05.153Z,23.53
2023-03-11T12:49:05.379Z,23.41
2023-03-11T12:53:05.321Z,23.37
2023-03-11T12:57:05.294Z,23.33
2023-03-11T13:01:05.262Z,23.19
2023-03-11T13:05:05.233Z,21.14
2023-03-11T13:09:05.214Z,17.55
2023-03-11T13:13:05.147Z,19.48
2023-03-11T13:17:05.121Z,21.04
2023-03-11T13:21:05.076Z,21.79
2023-03-11T13:25:05.036Z,22.37
2023-03-11T13:29:04.989Z,22.73
2023-03-11T13:33:04.977Z,22.86
2023-03-11T13:37:04.948Z,22.81
2023-03-11T13:41:04.952Z,22.80
2023-03-11T13:45:05.115Z,23.04
2023-03-11T13:49:05.264Z,23.19
2023-03-11T13:53:05.468Z,23.28
2023-03-11T13:57:05.662Z,23.46
2023-03-11T14:01:05.919Z,23.69
2023-03-11T14:05:05.826Z,23.72
2023-03-11T14:09:05.819Z,23.77
2023-03-11T14:13:05.778Z,23.75
2023-03-11T14:17:05.695Z,23.85
2023-03-11T14:21:05.712Z,23.91
2023-03-11T14:25:05.650Z,23.98
2023-03-11T14:29:05.601Z,24.09
2023-03-11T14:33:05.605Z,24.14
2023-03-11T14:37:05.550Z,24.20
2023-03-11T14:41:05.474Z,24.17
2023-03-11T14:45:05.495Z,24.16
2023-03-11T14:49:05.665Z,24.18
2023-03-11T14:53:05.854Z,24.17
2023-03-11T14:57:05.996Z,24.17
2023-03-11T15:01:06.203Z,24.22
2023-03-11T15:05:06.332Z,24.27
2023-03-11T15:09:06.440Z,24.27
2023-03-11T15:13:06.566Z,24.33
2023-03-11T15:17:06.682Z,24.35
2023-03-11T15:21:06.782Z,24.41
2023-03-11T15:25:06.933Z,24.41
2023-03-11T15:29:07.185Z,24.51
2023-03-11T15:33:07.076Z,24.57
2023-03-11T15:37:07.214Z,24.70
2023-03-11T15:41:07.356Z,24.75
2023-03-11T15:45:07.501Z,24.80
2023-03-11T15:49:07.567Z,24.84
2023-03-11T15:53:07.691Z,24.81
2023-03-11T15:57:07.818Z,24.86
2023-03-11T16:01:07.955Z,25.01
2023-03-11T16:05:08.223Z,25.11
2023-03-11T16:09:08.281Z,25.21
2023-03-11T16:13:08.464Z,25.32
2023-03-11T16:17:08.681Z,25.45
2023-03-11T16:21:08.635Z,25.48
2023-03-11T16:25:08.669Z,25.49
2023-03-11T16:29:18.638Z,25.61
2023-03-11T16:33:09.534Z,25.71
2023-03-11T16:37:08.507Z,25.74
2023-03-11T16:41:08.512Z,25.70
2023-03-11T16:45:08.540Z,25.66
2023-03-11T16:49:08.571Z,25.32
2023-03-11T16:53:08.555Z,24.84
2023-03-11T16:57:08.550Z,24.87
2023-03-11T17:01:08.599Z,24.93
2023-03-11T17:05:08.762Z,24.90
2023-03-11T17:09:08.679Z,24.37
2023-03-11T17:13:08.709Z,24.01
2023-03-11T17:17:09.181Z,23.74
2023-03-11T17:21:08.879Z,23.90
2023-03-11T17:25:08.963Z,23.84
2023-03-11T17:29:09.074Z,23.57
2023-03-11T17:33:09.231Z,23.71
2023-03-11T17:37:09.474Z,23.88
2023-03-11T17:41:09.496Z,23.42
2023-03-11T17:45:09.631Z,23.29
2023-03-11T17:49:09.825Z,23.26
2023-03-11T17:53:10.040Z,23.42
2023-03-11T17:57:10.249Z,23.33
2023-03-11T18:01:10.361Z,23.39
2023-03-11T18:05:10.606Z,22.94
2023-03-11T18:09:10.607Z,22.75
2023-03-11T18:13:10.550Z,22.67
2023-03-11T18:17:10.514Z,22.61
2023-03-11T18:21:10.440Z,22.53
2023-03-11T18:25:10.428Z,22.51
2023-03-11T18:29:10.386Z,22.42
2023-03-11T18:33:10.336Z,22.28
2023-03-11T18:37:10.314Z,22.20
2023-03-11T18:41:10.257Z,22.28
2023-03-11T18:45:10.190Z,22.51
2023-03-11T18:49:10.166Z,22.79
2023-03-11T18:53:10.180Z,23.11
2023-03-11T18:57:10.210Z,23.37
2023-03-11T19:01:10.347Z,23.70
2023-03-11T19:05:10.387Z,23.94
2023-03-11T19:09:10.472Z,24.27
2023-03-11T19:13:10.657Z,24.53
2023-03-11T19:17:10.889Z,24.90
2023-03-11T19:21:10.974Z,25.34
2023-03-11T19:25:10.931Z,25.73
2023-03-11T19:29:10.922Z,26.07
2023-03-11T19:33:10.860Z,26.20
2023-03-11T19:37:10.845Z,26.36
2023-03-11T19:41:10.795Z,26.38
2023-03-11T19:45:11.247Z,26.48
2023-03-11T19:49:10.779Z,26.46
2023-03-11T19:53:10.738Z,26.48
2023-03-11T19:57:10.643Z,26.53
2023-03-11T20:01:10.640Z,26.61
2023-03-11T20:05:10.731Z,26.76
2023-03-11T20:09:10.609Z,26.81
2023-03-11T20:13:10.577Z,26.82
2023-03-11T20:17:10.472Z,26.82
2023-03-11T20:21:10.411Z,26.81
2023-03-11T20:25:10.361Z,26.83
2023-03-11T20:29:10.315Z,26.79
2023-03-11T20:33:10.433Z,26.79
2023-03-11T20:37:10.273Z,26.83
2023-03-11T20:41:10.291Z,26.77
2023-03-11T20:45:10.181Z,26.82
2023-03-11T20:49:10.224Z,26.83
2023-03-11T20:53:10.108Z,26.77
2023-03-11T20:57:10.172Z,26.74
2023-03-11T21:01:10.041Z,26.77
2023-03-11T21:05:10.261Z,26.75
2023-03-11T21:09:10.296Z,26.76
2023-03-11T21:13:10.361Z,26.77
2023-03-11T21:17:10.609Z,26.81
2023-03-11T21:21:10.635Z,26.81
2023-03-11T21:25:10.700Z,26.85
2023-03-11T21:29:10.925Z,26.80
2023-03-11T21:33:11.073Z,26.85
2023-03-11T21:37:11.128Z,26.88
2023-03-11T21:41:11.273Z,26.88
2023-03-11T21:45:11.280Z,26.93
2023-03-11T21:49:11.242Z,26.92
2023-03-11T21:53:11.337Z,26.90
2023-03-11T21:57:11.204Z,26.85
2023-03-11T22:01:11.328Z,26.87
2023-03-11T22:05:11.183Z,26.84
2023-03-11T22:09:11.339Z,26.85
2023-03-11T22:13:11.530Z,26.90
2023-03-11T22:17:11.596Z,26.91
2023-03-11T22:21:11.594Z,26.90
2023-03-11T22:25:11.740Z,26.90
2023-03-11T22:29:13.561Z,26.95
2023-03-11T22:33:11.453Z,26.92
2023-03-11T22:37:11.501Z,26.94
2023-03-11T22:41:11.443Z,26.92
2023-03-11T22:45:11.422Z,26.97
2023-03-11T22:49:11.422Z,26.97
2023-03-11T22:53:11.413Z,26.96
2023-03-11T22:57:11.403Z,26.92
2023-03-11T23:01:11.372Z,26.95
2023-03-11T23:05:11.369Z,26.96
2023-03-11T23:09:11.361Z,26.96
2023-03-11T23:13:11.375Z,26.96
2023-03-11T23:17:11.501Z,26.98
2023-03-11T23:21:11.355Z,26.97
2023-03-11T23:25:11.365Z,26.98
2023-03-11T23:29:11.412Z,26.93
2023-03-11T23:33:11.393Z,26.93
2023-03-11T23:37:11.423Z,26.94
2023-03-11T23:41:11.462Z,26.93
2023-03-11T23:45:11.468Z,26.90
2023-03-11T23:49:11.512Z,26.95
2023-03-11T23:53:11.529Z,27.01
2023-03-11T23:57:11.491Z,26.90
